Time;durP1;ratioP1;P1;durP2;ratioP2;P2;SDS_P1;SDS_P2;PMS_P1;PMS_P2;Temp;Humidity;BMP_temperature;BMP_pressure;BME280_temperature;BME280_humidity;BME280_pressure;Samples;Min_cycle;Max_cycle;Signal;HPM_P1;HPM_P2
2022/07/12 00:02:18;;;;;;;1.80;1.17;;;;;;;19.12;40.90;99986.13;5014466;28;20467;-81
2022/07/12 00:04:43;;;;;;;1.23;1.13;;;;;;;19.16;40.49;99981.50;5014278;28;20033;-80
2022/07/12 00:07:09;;;;;;;0.82;0.80;;;;;;;18.99;41.36;99977.78;5014355;28;20034;-80
2022/07/12 00:09:34;;;;;;;1.75;0.90;;;;;;;19.02;41.48;99988.34;5014071;28;20425;-81
2022/07/12 00:12:00;;;;;;;1.15;1.00;;;;;;;18.61;42.04;99974.97;5014697;28;20121;-80
2022/07/12 00:14:26;;;;;;;1.90;1.10;;;;;;;18.48;42.39;99987.16;5013959;28;20040;-81
2022/07/12 00:16:51;;;;;;;0.80;0.60;;;;;;;18.80;42.06;100017.81;5014213;28;20040;-82
2022/07/12 00:19:17;;;;;;;1.13;0.95;;;;;;;18.78;41.66;99995.63;5013959;28;20038;-82
2022/07/12 00:21:43;;;;;;;1.00;0.68;;;;;;;18.86;41.73;99981.94;5013985;28;20029;-81
2022/07/12 00:24:09;;;;;;;0.80;0.75;;;;;;;18.91;41.58;99998.66;5013553;28;20644;-81
2022/07/12 00:26:35;;;;;;;1.63;1.00;;;;;;;18.94;41.73;100015.44;5013525;28;20026;-81
2022/07/12 00:29:00;;;;;;;1.00;0.90;;;;;;;18.87;41.90;100018.44;5014151;28;20060;-81
2022/07/12 00:31:26;;;;;;;2.00;1.10;;;;;;;18.76;41.48;100011.72;5013839;28;20034;-81
2022/07/12 00:33:52;;;;;;;1.77;1.15;;;;;;;19.07;41.14;100020.22;4995963;28;20046;-81
2022/07/12 00:36:17;;;;;;;1.15;1.05;;;;;;;19.29;40.74;100022.78;5013941;28;20484;-82
2022/07/12 00:38:42;;;;;;;0.98;0.73;;;;;;;19.17;41.42;100018.00;5013728;28;20092;-81
2022/07/12 00:41:08;;;;;;;0.75;0.63;;;;;;;18.74;43.08;100031.44;5013662;28;20034;-81
2022/07/12 00:43:33;;;;;;;1.35;0.90;;;;;;;18.57;42.18;99984.94;5013707;28;20029;-82
2022/07/12 00:45:59;;;;;;;0.68;0.68;;;;;;;18.77;42.29;100024.16;5013584;28;20034;-81
2022/07/12 00:48:25;;;;;;;1.05;0.77;;;;;;;18.57;42.42;99995.63;5013610;28;20033;-81
2022/07/12 00:50:50;;;;;;;1.73;1.10;;;;;;;18.82;42.53;100017.75;5013382;28;20045;-81
2022/07/12 00:53:18;;;;;;;0.80;0.73;;;;;;;18.47;42.54;100018.31;5013321;28;20538;-81
2022/07/12 00:55:44;;;;;;;1.92;1.13;;;;;;;18.22;42.77;99989.13;5013578;28;20092;-80
2022/07/12 00:58:09;;;;;;;3.70;1.15;;;;;;;18.12;43.33;99993.97;5013598;28;20034;-80
2022/07/12 01:00:35;;;;;;;0.80;0.80;;;;;;;18.10;42.26;100005.66;5013238;28;20096;-81
2022/07/12 01:03:02;;;;;;;1.35;1.10;;;;;;;18.27;42.26;100004.94;5013591;28;20025;-80
2022/07/12 01:05:29;;;;;;;1.02;0.80;;;;;;;18.35;42.59;100018.84;5012978;28;20320;-81
2022/07/12 01:07:56;;;;;;;2.03;1.38;;;;;;;18.10;42.43;100008.31;5013230;28;20026;-81
2022/07/12 01:10:22;;;;;;;1.48;1.15;;;;;;;18.23;42.53;100015.75;5013235;28;20480;-80
2022/07/12 01:12:48;;;;;;;3.08;1.10;;;;;;;18.05;42.95;100009.38;5011877;28;20040;-81
2022/07/12 01:15:14;;;;;;;1.75;1.40;;;;;;;18.24;42.75;100003.25;5012697;28;20029;-81
2022/07/12 01:17:40;;;;;;;1.48;1.05;;;;;;;17.87;43.15;100002.97;5013059;28;20498;-80
2022/07/12 01:20:06;;;;;;;1.23;1.00;;;;;;;17.92;43.20;100002.81;5012566;28;20049;-81
2022/07/12 01:22:36;;;;;;;1.40;1.25;;;;;;;17.81;43.38;100002.31;5012735;28;20069;-81
2022/07/12 01:25:04;;;;;;;1.52;1.17;;;;;;;18.06;42.62;100000.44;4994660;28;20124;-80
2022/07/12 01:27:30;;;;;;;1.42;1.23;;;;;;;17.99;43.23;100009.63;5012960;28;20034;-80
2022/07/12 01:29:56;;;;;;;0.93;0.80;;;;;;;17.82;42.86;99980.91;5012759;28;20061;-81
2022/07/12 01:32:26;;;;;;;1.55;1.35;;;;;;;18.13;42.78;100010.84;5012518;28;20511;-86
2022/07/12 01:34:57;;;;;;;1.63;1.38;;;;;;;17.97;43.06;100003.47;5012458;28;20026;-81
2022/07/12 01:37:24;;;;;;;1.40;1.00;;;;;;;17.89;43.41;100019.81;5012663;28;20037;-81
2022/07/12 01:39:52;;;;;;;1.00;0.80;;;;;;;17.76;43.77;99996.31;5012780;28;20476;-81
2022/07/12 01:42:18;;;;;;;0.77;0.73;;;;;;;17.83;43.21;99997.81;4994769;28;20034;-81
2022/07/12 01:44:44;;;;;;;1.13;0.80;;;;;;;17.74;43.53;100012.38;5012489;28;20069;-80
2022/07/12 01:47:10;;;;;;;1.30;1.20;;;;;;;17.70;43.52;100002.75;5012451;28;20512;-81
2022/07/12 01:49:35;;;;;;;2.08;1.13;;;;;;;17.86;43.90;100005.69;5011697;28;20034;-82
2022/07/12 01:52:01;;;;;;;1.40;1.20;;;;;;;17.87;43.40;100002.06;5012484;28;20034;-81
2022/07/12 01:54:26;;;;;;;0.88;0.85;;;;;;;17.69;43.76;99990.34;5012529;28;20058;-82
2022/07/12 01:56:52;;;;;;;1.10;0.82;;;;;;;17.64;43.80;99990.53;5012044;28;20033;-82
2022/07/12 01:59:19;;;;;;;1.45;1.00;;;;;;;17.93;43.57;100004.53;5012416;28;20034;-81
2022/07/12 02:01:45;;;;;;;1.30;1.10;;;;;;;17.79;44.25;100017.53;5012163;28;20029;-80
2022/07/12 02:04:11;;;;;;;1.33;1.00;;;;;;;17.62;43.88;99997.72;5011620;28;20034;-80
2022/07/12 02:06:38;;;;;;;1.00;0.77;;;;;;;17.64;43.98;100005.66;5011725;28;20554;-81
2022/07/12 02:09:05;;;;;;;0.80;0.80;;;;;;;17.80;43.64;100012.13;5012225;28;20514;-81
2022/07/12 02:11:30;;;;;;;2.10;1.30;;;;;;;17.76;43.47;99986.50;4994108;28;20100;-81
2022/07/12 02:13:56;;;;;;;1.90;1.30;;;;;;;17.83;43.57;100004.00;5012284;28;20026;-81
2022/07/12 02:16:22;;;;;;;1.20;1.10;;;;;;;17.62;42.89;99986.19;5011868;28;20080;-80
2022/07/12 02:18:47;;;;;;;1.33;0.88;;;;;;;17.53;44.03;99995.41;5011721;28;20038;-81
2022/07/12 02:21:13;;;;;;;1.00;0.90;;;;;;;17.61;43.91;100029.78;5011508;28;20026;-81
2022/07/12 02:23:38;;;;;;;1.13;1.05;;;;;;;17.87;43.31;100026.09;5011380;28;20109;-82
2022/07/12 02:26:04;;;;;;;2.00;1.10;;;;;;;17.56;43.41;100007.75;5011535;28;20032;-81
2022/07/12 02:28:31;;;;;;;1.48;0.88;;;;;;;17.54;43.84;100016.69;5012079;28;20037;-81
2022/07/12 02:30:57;;;;;;;0.55;0.55;;;;;;;17.70;43.58;100040.97;5011887;28;20036;-81
2022/07/12 02:33:23;;;;;;;2.83;2.33;;;;;;;17.63;43.99;100043.94;5010971;28;20041;-81
2022/07/12 02:35:48;;;;;;;1.42;0.70;;;;;;;17.75;43.77;100039.91;5011645;28;20129;-80
2022/07/12 02:38:14;;;;;;;0.70;0.70;;;;;;;17.51;43.68;100040.78;5011770;28;20041;-81
2022/07/12 02:40:54;;;;;;;1.80;1.02;;;;;;;17.48;44.12;100010.72;5011262;28;20026;-80
2022/07/12 02:43:24;;;;;;;2.42;1.48;;;;;;;17.50;44.14;100038.19;5011563;28;20029;-81
2022/07/12 02:45:50;;;;;;;2.97;1.38;;;;;;;17.61;44.09;100045.78;5011480;28;20072;-81
2022/07/12 02:48:16;;;;;;;2.35;1.42;;;;;;;17.34;44.71;100025.44;5010939;28;20036;-81
2022/07/12 02:50:42;;;;;;;1.88;1.17;;;;;;;17.34;44.62;100043.25;5010821;28;20033;-81
2022/07/12 02:53:09;;;;;;;1.58;0.90;;;;;;;17.20;44.98;100050.91;5010920;28;20061;-81
2022/07/12 02:55:35;;;;;;;1.20;1.10;;;;;;;17.29;45.35;100043.41;5010672;28;20034;-82
2022/07/12 02:58:00;;;;;;;1.27;1.13;;;;;;;17.34;44.85;100044.09;5011389;28;20401;-84
2022/07/12 03:00:27;;;;;;;1.02;1.00;;;;;;;17.21;44.66;100031.28;5011156;28;20026;-81
2022/07/12 03:02:52;;;;;;;0.95;0.80;;;;;;;17.45;45.09;100053.50;5011219;28;20037;-81
2022/07/12 03:05:18;;;;;;;1.98;1.58;;;;;;;17.12;45.37;100025.38;5010675;28;20030;-82
2022/07/12 03:07:43;;;;;;;0.82;0.80;;;;;;;17.16;45.69;100036.78;5010615;28;20420;-81
2022/07/12 03:10:10;;;;;;;2.20;1.60;;;;;;;17.26;45.57;100051.53;5011038;28;20034;-85
2022/07/12 03:12:36;;;;;;;3.78;1.77;;;;;;;17.02;46.27;100044.44;5010678;28;20084;-83
2022/07/12 03:15:02;;;;;;;4.13;1.42;;;;;;;17.15;45.74;100030.59;5010216;28;20061;-83
2022/07/12 03:17:27;;;;;;;0.90;0.73;;;;;;;17.32;45.47;100053.97;5011149;28;20044;-83
2022/07/12 03:19:53;;;;;;;1.25;0.77;;;;;;;16.82;45.91;100025.53;5010778;28;20108;-84
2022/07/12 03:22:18;;;;;;;2.55;1.33;;;;;;;17.08;46.21;100046.88;5010721;28;20117;-83
2022/07/12 03:24:44;;;;;;;1.00;0.95;;;;;;;17.20;45.95;100058.88;5010592;28;20037;-83
2022/07/12 03:27:09;;;;;;;4.40;1.58;;;;;;;17.08;46.18;100036.22;5011306;28;20119;-82
2022/07/12 03:29:36;;;;;;;3.25;1.17;;;;;;;17.21;46.17;100056.16;5010271;28;20053;-83
2022/07/12 03:32:02;;;;;;;0.80;0.77;;;;;;;17.32;45.88;100069.09;5010103;28;20125;-83
2022/07/12 03:34:28;;;;;;;1.08;0.93;;;;;;;17.34;45.79;100061.91;5010330;28;20076;-82
2022/07/12 03:36:53;;;;;;;1.27;0.98;;;;;;;17.61;45.26;100060.00;5015328;28;20034;-83
2022/07/12 03:39:18;;;;;;;1.40;1.20;;;;;;;17.20;45.77;100042.91;5014358;28;20034;-83
2022/07/12 03:41:44;;;;;;;2.13;1.27;;;;;;;17.25;45.68;100025.78;5014932;28;20021;-82
2022/07/12 03:44:09;;;;;;;1.63;1.15;;;;;;;17.43;45.99;100068.72;5014369;28;20178;-78
2022/07/12 03:46:35;;;;;;;1.75;1.65;;;;;;;17.63;45.07;100066.16;5013495;28;20488;-79
2022/07/12 03:49:01;;;;;;;1.08;0.98;;;;;;;17.57;45.12;100037.03;5014840;28;20061;-79
2022/07/12 03:51:26;;;;;;;1.10;0.93;;;;;;;17.69;44.75;100041.91;5014523;28;20026;-78
2022/07/12 03:53:52;;;;;;;0.88;0.85;;;;;;;17.89;44.46;100050.97;5013894;28;20104;-79
2022/07/12 03:59:02;;;;;;;0.82;0.82;;;;;;;18.04;44.63;100076.16;5014790;28;20044;-79
2022/07/12 04:01:28;;;;;;;3.08;1.35;;;;;;;17.92;44.31;100058.84;5014630;28;20034;-79
2022/07/12 04:03:55;;;;;;;1.27;0.82;;;;;;;18.09;44.22;100082.19;5014474;28;20095;-78
2022/07/12 04:06:21;;;;;;;1.00;0.70;;;;;;;18.07;44.47;100068.03;5013923;28;20065;-78
2022/07/12 04:08:46;;;;;;;2.63;1.23;;;;;;;18.05;43.31;100070.75;5013486;28;20060;-79
2022/07/12 04:11:12;;;;;;;1.83;1.05;;;;;;;17.88;43.90;100057.19;5013306;28;20038;-82
2022/07/12 04:13:37;;;;;;;1.13;1.02;;;;;;;18.06;43.88;100082.31;5013761;28;20029;-79
2022/07/12 04:16:03;;;;;;;1.95;1.60;;;;;;;18.08;44.51;100059.94;5013378;28;20036;-79
2022/07/12 04:18:29;;;;;;;1.00;0.90;;;;;;;18.04;45.49;100077.03;5013694;28;20036;-78
2022/07/12 04:20:54;;;;;;;1.55;0.82;;;;;;;18.16;45.18;100069.47;5013453;28;20121;-78
2022/07/12 04:23:20;;;;;;;1.75;0.82;;;;;;;18.21;45.14;100071.03;5014099;28;20052;-78
2022/07/12 04:25:45;;;;;;;1.25;0.93;;;;;;;18.32;45.41;100070.59;5013854;28;20029;-80
2022/07/12 04:28:11;;;;;;;0.75;0.75;;;;;;;18.61;44.98;100092.53;5013790;28;20121;-78
2022/07/12 04:30:36;;;;;;;2.78;1.13;;;;;;;18.70;45.45;100076.09;5013430;28;20049;-81
2022/07/12 04:33:02;;;;;;;1.92;1.75;;;;;;;18.64;44.36;100081.72;5013372;28;20128;-79
2022/07/12 04:35:27;;;;;;;1.08;0.80;;;;;;;18.55;43.95;100083.00;5013414;28;20030;-79
2022/07/12 04:37:53;;;;;;;1.08;0.98;;;;;;;18.69;44.83;100063.72;5013280;28;20033;-79
2022/07/12 04:40:18;;;;;;;1.23;0.90;;;;;;;18.94;43.99;100097.44;5012653;28;20550;-80
2022/07/12 04:42:44;;;;;;;6.38;1.13;;;;;;;19.28;43.47;100088.78;5013354;28;20053;-80
2022/07/12 04:45:09;;;;;;;0.82;0.75;;;;;;;19.08;42.96;100081.63;5013537;28;20030;-79
2022/07/12 04:47:36;;;;;;;1.23;1.13;;;;;;;19.24;43.02;100092.50;5012241;28;20041;-80
2022/07/12 04:50:06;;;;;;;4.03;0.90;;;;;;;19.20;43.26;100068.66;5029629;28;20041;-80
2022/07/12 04:52:32;;;;;;;0.98;0.90;;;;;;;19.34;42.29;100063.56;5013969;28;20034;-79
2022/07/12 04:54:58;;;;;;;1.15;0.88;;;;;;;19.55;41.11;100059.03;5013341;28;20048;-80
2022/07/12 04:57:23;;;;;;;0.77;0.70;;;;;;;19.90;42.08;100093.16;5013250;28;20029;-79
2022/07/12 04:59:49;;;;;;;1.08;0.70;;;;;;;19.69;41.37;100085.13;5013408;28;20030;-80
2022/07/12 05:02:15;;;;;;;1.10;0.77;;;;;;;20.03;40.59;100102.31;5013233;28;20018;-79
2022/07/12 05:04:40;;;;;;;1.50;1.40;;;;;;;19.80;41.48;100085.56;5013065;28;20070;-80
2022/07/12 05:07:06;;;;;;;1.20;0.70;;;;;;;20.07;40.31;100070.94;4995146;28;20121;-79
2022/07/12 05:09:31;;;;;;;0.70;0.70;;;;;;;20.25;40.28;100087.91;5013271;28;20145;-83
2022/07/12 05:11:57;;;;;;;1.45;0.90;;;;;;;20.44;39.57;100085.19;5013475;28;20049;-79
2022/07/12 05:14:22;;;;;;;0.65;0.60;;;;;;;20.33;39.81;100078.56;5012145;28;20038;-81
2022/07/12 05:16:48;;;;;;;1.15;0.60;;;;;;;20.55;39.20;100109.63;4995645;28;20028;-80
2022/07/12 05:19:15;;;;;;;1.73;1.35;;;;;;;20.42;40.25;100089.75;5013116;28;20092;-80
2022/07/12 05:21:42;;;;;;;1.75;1.23;;;;;;;20.47;39.97;100091.25;5012624;28;20109;-81
2022/07/12 05:24:07;;;;;;;2.78;1.77;;;;;;;20.68;39.19;100094.72;5012922;28;20038;-80
2022/07/12 05:26:33;;;;;;;2.40;1.52;;;;;;;20.76;39.56;100099.69;5012738;28;20049;-80
2022/07/12 05:28:59;;;;;;;1.80;1.02;;;;;;;21.11;39.53;100105.03;5012724;28;20030;-79
2022/07/12 05:31:25;;;;;;;3.40;1.30;;;;;;;21.01;39.36;100093.06;5012887;28;20113;-79
2022/07/12 05:33:50;;;;;;;2.88;1.45;;;;;;;21.08;37.99;100091.78;5012642;28;20041;-79
2022/07/12 05:36:16;;;;;;;2.53;0.90;;;;;;;21.28;38.10;100094.25;5012435;28;20431;-80
2022/07/12 05:38:41;;;;;;;3.38;1.30;;;;;;;21.17;38.10;100107.38;5011829;28;20041;-82
2022/07/12 05:41:07;;;;;;;0.60;0.60;;;;;;;21.19;37.29;100084.03;5012101;28;20061;-80
2022/07/12 05:43:32;;;;;;;1.65;1.00;;;;;;;21.27;37.39;100097.91;5013158;28;20033;-79
2022/07/12 05:45:58;;;;;;;1.35;0.82;;;;;;;21.47;37.37;100085.22;5012065;28;20463;-81
2022/07/12 05:48:24;;;;;;;0.63;0.63;;;;;;;21.49;37.08;100079.78;5012427;28;20034;-80
2022/07/12 05:50:49;;;;;;;1.10;0.85;;;;;;;21.66;38.82;100098.56;5011797;28;20117;-80
2022/07/12 05:53:24;;;;;;;1.27;0.80;;;;;;;21.71;37.29;100092.94;5011984;28;20029;-80
2022/07/12 05:55:54;;;;;;;1.15;1.05;;;;;;;21.69;38.15;100078.72;5012520;28;20116;-80
2022/07/12 05:58:21;;;;;;;2.78;1.13;;;;;;;21.87;37.11;100101.00;5011974;28;20025;-81
2022/07/12 06:00:47;;;;;;;2.83;1.45;;;;;;;21.94;36.70;100094.34;5012223;28;20062;-80
2022/07/12 06:03:14;;;;;;;0.60;0.60;;;;;;;22.12;36.59;100073.63;5011151;28;20033;-81
2022/07/12 06:05:40;;;;;;;0.90;0.80;;;;;;;22.16;35.08;100096.69;5012087;28;20041;-80
2022/07/12 06:08:06;;;;;;;1.63;0.93;;;;;;;22.31;36.52;100089.63;5011220;28;20032;-80
2022/07/12 06:10:33;;;;;;;0.70;0.70;;;;;;;22.47;36.09;100086.91;5012318;28;20030;-80
2022/07/12 06:12:59;;;;;;;0.50;0.40;;;;;;;22.52;34.63;100092.84;5012155;28;20121;-80
2022/07/12 06:15:25;;;;;;;0.88;0.75;;;;;;;22.72;35.80;100091.69;5011843;28;20061;-80
2022/07/12 06:17:51;;;;;;;0.90;0.50;;;;;;;22.78;35.71;100093.16;5011860;28;20507;-79
2022/07/12 06:20:16;;;;;;;1.05;0.73;;;;;;;22.91;36.10;100104.03;5012058;28;20068;-80
2022/07/12 06:22:42;;;;;;;1.38;1.27;;;;;;;22.78;34.63;100096.69;5011622;28;20608;-80
2022/07/12 06:25:08;;;;;;;0.73;0.73;;;;;;;23.06;35.43;100082.47;5012072;28;20109;-80
2022/07/12 06:27:33;;;;;;;0.63;0.63;;;;;;;23.16;34.43;100096.25;5012057;28;20558;-79
2022/07/12 06:29:59;;;;;;;1.38;0.80;;;;;;;23.41;34.63;100076.75;5011779;28;20034;-79
2022/07/12 06:32:24;;;;;;;1.00;0.88;;;;;;;23.27;34.29;100083.97;5011545;28;20038;-79
2022/07/12 06:34:50;;;;;;;0.68;0.60;;;;;;;23.26;34.37;100083.09;5011621;28;20447;-80
2022/07/12 06:37:15;;;;;;;1.00;0.85;;;;;;;23.07;33.87;100054.59;5011594;28;20160;-80
2022/07/12 06:39:41;;;;;;;1.40;0.90;;;;;;;23.60;34.75;100081.88;5011999;28;20034;-79
2022/07/12 06:42:07;;;;;;;1.73;0.95;;;;;;;23.89;34.39;100084.56;5011667;28;20037;-80
2022/07/12 06:44:34;;;;;;;0.88;0.82;;;;;;;23.76;34.46;100065.59;5011686;28;20495;-79
2022/07/12 06:47:00;;;;;;;0.90;0.70;;;;;;;24.18;34.15;100072.88;4993989;28;20053;-79
2022/07/12 06:49:26;;;;;;;2.22;0.95;;;;;;;24.24;33.54;100075.16;5011120;28;20030;-80
2022/07/12 06:51:52;;;;;;;0.52;0.50;;;;;;;24.19;34.05;100077.25;5011177;28;20037;-79
2022/07/12 06:54:17;;;;;;;0.68;0.65;;;;;;;24.18;34.09;100086.34;5011710;28;20026;-80
2022/07/12 06:56:43;;;;;;;0.52;0.50;;;;;;;24.47;33.53;100097.88;5011401;28;20044;-81
2022/07/12 06:59:11;;;;;;;0.80;0.70;;;;;;;24.38;34.05;100075.09;5011726;28;20493;-80
2022/07/12 07:01:37;;;;;;;4.20;1.08;;;;;;;24.47;32.54;100084.41;5011390;28;20041;-80
2022/07/12 07:04:03;;;;;;;0.95;0.40;;;;;;;24.57;32.98;100084.66;5011294;28;20034;-79
2022/07/12 07:06:29;;;;;;;4.75;0.85;;;;;;;24.70;33.87;100068.53;5011492;28;20087;-80
2022/07/12 07:08:54;;;;;;;1.10;0.77;;;;;;;24.76;32.97;100084.28;5010827;28;20451;-80
2022/07/12 07:11:20;;;;;;;1.25;0.88;;;;;;;24.92;32.75;100082.28;5010724;28;20547;-80
2022/07/12 07:13:45;;;;;;;0.43;0.40;;;;;;;24.68;32.70;100076.72;5011482;28;20061;-81
2022/07/12 07:16:11;;;;;;;0.70;0.70;;;;;;;24.71;33.77;100083.75;5011410;28;20030;-80
2022/07/12 07:18:37;;;;;;;2.15;1.02;;;;;;;24.98;33.18;100067.50;5011214;28;20065;-79
2022/07/12 07:21:02;;;;;;;0.98;0.77;;;;;;;25.33;33.22;100062.38;5011191;28;20030;-78
2022/07/12 07:23:28;;;;;;;0.40;0.30;;;;;;;24.89;31.45;100058.22;5011221;28;20025;-78
2022/07/12 07:25:53;;;;;;;3.15;0.77;;;;;;;25.11;31.60;100046.78;5010819;28;20033;-78
2022/07/12 07:28:19;;;;;;;1.15;0.43;;;;;;;25.04;32.07;100083.28;5011143;28;20029;-78
2022/07/12 07:30:54;;;;;;;0.63;0.50;;;;;;;25.03;31.68;100065.34;5010923;28;20041;-84
2022/07/12 07:33:25;;;;;;;0.82;0.50;;;;;;;25.25;31.32;100058.44;5011284;28;20046;-78
2022/07/12 07:35:51;;;;;;;0.60;0.60;;;;;;;25.17;32.71;100078.72;5011244;28;20042;-77
2022/07/12 07:38:18;;;;;;;2.03;0.70;;;;;;;25.86;32.38;100053.22;5011180;28;20064;-78
2022/07/12 07:40:44;;;;;;;0.90;0.43;;;;;;;25.98;33.36;100062.25;5010921;28;20488;-80
2022/07/12 07:43:10;;;;;;;3.78;2.05;;;;;;;26.13;30.94;100077.34;5011020;28;20038;-78
2022/07/12 07:45:36;;;;;;;0.68;0.40;;;;;;;25.62;29.85;100042.34;5011101;28;20038;-78
2022/07/12 07:48:02;;;;;;;1.83;0.65;;;;;;;25.70;31.06;100066.94;5010630;28;20088;-78
2022/07/12 07:50:28;;;;;;;0.60;0.45;;;;;;;25.59;31.18;100069.56;5010862;28;20070;-77
2022/07/12 07:52:53;;;;;;;0.55;0.40;;;;;;;25.60;31.47;100060.50;5011102;28;20085;-78
2022/07/12 07:55:19;;;;;;;0.43;0.38;;;;;;;25.82;32.43;100040.88;5010743;28;20034;-79
2022/07/12 07:57:46;;;;;;;1.73;1.63;;;;;;;25.87;32.75;100063.91;5011035;28;20037;-78
2022/07/12 08:00:12;;;;;;;4.80;0.60;;;;;;;25.94;32.39;100063.47;5010953;28;20030;-78
2022/07/12 08:02:38;;;;;;;0.40;0.40;;;;;;;25.93;31.63;100040.97;5010475;28;20036;-78
2022/07/12 08:05:03;;;;;;;1.75;1.30;;;;;;;25.73;29.75;100047.81;5010845;28;20026;-78
2022/07/12 08:07:29;;;;;;;1.08;0.70;;;;;;;25.92;30.96;100031.16;5010666;28;20030;-78
2022/07/12 08:09:54;;;;;;;1.02;0.90;;;;;;;26.25;32.86;100041.28;5010752;28;20018;-78
2022/07/12 08:12:20;;;;;;;2.00;0.75;;;;;;;26.23;30.60;100047.81;5010779;28;20034;-78
2022/07/12 08:14:45;;;;;;;1.52;1.10;;;;;;;26.20;29.80;100048.91;4992730;28;20038;-78
2022/07/12 08:17:11;;;;;;;1.23;0.80;;;;;;;26.43;30.85;100038.16;5010638;28;20037;-78
2022/07/12 08:19:36;;;;;;;0.30;0.30;;;;;;;26.71;30.74;100036.97;5010755;28;20503;-78
2022/07/12 08:22:03;;;;;;;1.25;0.80;;;;;;;26.65;30.41;100023.00;5012900;28;20034;-78
2022/07/12 08:24:29;;;;;;;0.40;0.40;;;;;;;26.68;30.96;100034.50;5014506;28;20033;-78
2022/07/12 08:26:54;;;;;;;0.52;0.32;;;;;;;26.79;29.20;100012.88;5014234;28;20408;-78
2022/07/12 08:29:20;;;;;;;0.95;0.52;;;;;;;26.75;30.66;100030.31;5014039;28;20500;-78
2022/07/12 08:31:45;;;;;;;0.43;0.43;;;;;;;26.65;30.04;100031.13;5014252;28;20033;-78
2022/07/12 08:34:11;;;;;;;1.90;0.45;;;;;;;26.91;28.03;100037.25;5014086;28;20058;-78
2022/07/12 08:36:36;;;;;;;0.35;0.32;;;;;;;26.85;27.88;100016.97;5013865;28;20022;-78
2022/07/12 08:39:03;;;;;;;0.65;0.52;;;;;;;26.36;27.65;100020.72;5014188;28;20025;-78
2022/07/12 08:41:29;;;;;;;0.68;0.52;;;;;;;26.54;28.33;100011.19;5014000;28;20488;-78
2022/07/12 08:43:55;;;;;;;0.50;0.30;;;;;;;26.62;27.69;100022.25;5013952;28;20022;-78
2022/07/12 08:46:20;;;;;;;0.88;0.88;;;;;;;27.14;30.27;100019.19;5013997;28;20110;-80
2022/07/12 08:48:46;;;;;;;1.85;0.88;;;;;;;27.40;29.67;100014.44;5013602;28;20528;-78
2022/07/12 08:51:13;;;;;;;0.85;0.43;;;;;;;27.28;26.00;99993.72;5013716;28;20034;-78
2022/07/12 08:53:40;;;;;;;0.70;0.50;;;;;;;27.12;26.95;100029.28;5013922;28;20079;-78
2022/07/12 08:56:07;;;;;;;0.98;0.25;;;;;;;26.90;28.68;100008.47;5013657;28;20029;-78
2022/07/12 08:58:33;;;;;;;0.70;0.60;;;;;;;27.06;29.29;99990.03;5013907;28;20488;-78
2022/07/12 09:01:00;;;;;;;4.00;1.10;;;;;;;27.20;26.38;100002.47;5013798;28;20025;-78
2022/07/12 09:03:25;;;;;;;1.30;0.70;;;;;;;27.52;27.01;100001.75;5013439;28;20033;-78
2022/07/12 09:05:56;;;;;;;0.90;0.57;;;;;;;26.97;27.75;100013.28;5013392;28;20423;-78
2022/07/12 09:08:35;;;;;;;0.63;0.63;;;;;;;26.87;30.14;99985.22;5013413;28;20034;-79
2022/07/12 09:11:03;;;;;;;3.40;0.40;;;;;;;27.10;28.17;99990.66;5013319;28;20096;-79
2022/07/12 09:13:55;;;;;;;0.30;0.30;;;;;;;27.67;27.59;100008.63;5013109;28;20511;-79
2022/07/12 09:16:23;;;;;;;0.77;0.52;;;;;;;27.90;28.02;99997.75;5013508;28;20029;-78
2022/07/12 09:18:49;;;;;;;0.63;0.32;;;;;;;27.87;27.11;100009.72;5013236;28;20503;-79
2022/07/12 09:21:29;;;;;;;1.20;0.43;;;;;;;27.38;25.99;99999.31;5013169;28;20033;-78
2022/07/12 09:23:59;;;;;;;0.63;0.50;;;;;;;27.72;27.16;99986.59;4995477;28;20130;-80
2022/07/12 09:26:31;;;;;;;0.20;0.20;;;;;;;27.69;25.86;99997.66;5013002;28;20026;-79
2022/07/12 09:29:05;;;;;;;1.73;0.57;;;;;;;27.70;25.47;99988.56;5013087;28;20105;-79
2022/07/12 09:36:06;;;;;;;3.88;1.48;;;;;;;27.33;26.62;99976.16;5013243;28;20053;-78
2022/07/12 09:37:13;;;;;;;0.47;0.40;;;;;;;27.62;25.61;99993.72;5012722;28;20036;-80
2022/07/12 09:39:40;;;;;;;1.13;0.43;;;;;;;27.80;28.25;99981.38;5012902;28;20104;-79
2022/07/12 09:42:09;;;;;;;0.55;0.55;;;;;;;28.06;27.24;99974.84;5013026;28;20026;-79
2022/07/12 09:44:35;;;;;;;0.68;0.50;;;;;;;27.62;27.76;99977.47;5012471;28;20506;-80
2022/07/12 09:47:01;;;;;;;0.68;0.30;;;;;;;27.19;26.51;99970.09;5012576;28;20057;-79
2022/07/12 09:49:28;;;;;;;1.65;0.30;;;;;;;26.63;26.19;99972.59;5012307;28;20034;-79
2022/07/12 09:51:56;;;;;;;0.73;0.65;;;;;;;26.89;28.11;99975.13;5012754;28;20033;-79
2022/07/12 09:54:25;;;;;;;1.23;0.73;;;;;;;27.61;27.93;99963.06;5012839;28;20065;-79
2022/07/12 09:56:55;;;;;;;1.55;0.50;;;;;;;27.94;28.07;99977.53;5012626;28;20045;-79
2022/07/12 09:59:25;;;;;;;0.50;0.40;;;;;;;27.96;25.53;99962.03;5012493;28;20026;-79
2022/07/12 10:01:52;;;;;;;0.28;0.28;;;;;;;28.43;25.46;99975.28;5012468;28;20022;-79
2022/07/12 10:04:21;;;;;;;0.25;0.25;;;;;;;27.61;24.34;99963.06;5012238;28;20136;-79
2022/07/12 10:06:47;;;;;;;0.32;0.20;;;;;;;27.94;26.52;99950.41;5012430;28;20036;-79
2022/07/12 10:09:14;;;;;;;0.35;0.30;;;;;;;28.01;25.93;99967.09;5012168;28;20034;-79
2022/07/12 10:11:41;;;;;;;0.85;0.47;;;;;;;28.16;24.16;99964.91;5012236;28;20022;-78
2022/07/12 10:14:11;;;;;;;0.30;0.30;;;;;;;27.97;22.36;99963.75;5011991;28;20033;-79
2022/07/12 10:16:41;;;;;;;0.47;0.30;;;;;;;28.00;24.17;99957.22;5012159;28;20026;-79
2022/07/12 10:19:28;;;;;;;0.22;0.22;;;;;;;27.70;25.83;99961.47;5012063;28;20141;-79
2022/07/12 10:21:55;;;;;;;0.30;0.20;;;;;;;28.00;24.63;99958.06;5011991;28;20026;-80
2022/07/12 10:24:33;;;;;;;1.20;0.50;;;;;;;28.27;24.40;99959.47;5012005;28;20026;-81
2022/07/12 10:27:00;;;;;;;0.47;0.40;;;;;;;28.30;24.25;99944.75;5011803;28;20415;-81
2022/07/12 10:29:26;;;;;;;0.25;0.25;;;;;;;28.26;24.69;99919.75;5011356;28;20041;-79
2022/07/12 10:31:52;;;;;;;0.55;0.38;;;;;;;28.31;27.89;99922.06;5012127;28;20034;-79
2022/07/12 10:34:24;;;;;;;0.45;0.32;;;;;;;28.16;24.59;99957.66;4993804;28;20765;-79
2022/07/12 10:36:56;;;;;;;0.88;0.65;;;;;;;28.22;27.20;99946.28;5011769;28;20480;-81
2022/07/12 10:39:23;;;;;;;0.68;0.45;;;;;;;28.32;24.45;99918.38;5011515;28;20042;-80
2022/07/12 10:42:06;;;;;;;0.25;0.25;;;;;;;28.60;23.71;99935.88;5011819;28;20477;-79
2022/07/12 10:44:40;;;;;;;0.82;0.70;;;;;;;28.73;23.85;99932.94;5011541;28;20033;-79
2022/07/12 10:47:07;;;;;;;0.43;0.32;;;;;;;28.44;28.50;99901.06;5011723;28;20049;-80
2022/07/12 10:49:35;;;;;;;0.52;0.50;;;;;;;28.28;23.24;99906.91;5010967;28;20034;-79
2022/07/12 10:52:10;;;;;;;1.15;0.43;;;;;;;28.52;24.30;99933.78;5011907;28;20037;-79
2022/07/12 10:54:40;;;;;;;0.22;0.22;;;;;;;28.71;23.37;99924.06;5011543;28;20036;-78
2022/07/12 10:57:06;;;;;;;2.50;0.55;;;;;;;28.35;25.11;99934.38;5011802;28;20053;-79
2022/07/12 10:59:37;;;;;;;1.15;0.65;;;;;;;28.50;25.42;99913.19;5011443;28;20108;-79
2022/07/12 11:02:04;;;;;;;0.35;0.32;;;;;;;27.98;24.26;99886.00;5011019;28;20655;-79
2022/07/12 11:04:29;;;;;;;1.30;1.15;;;;;;;28.18;27.91;99897.88;5011643;28;20033;-79
2022/07/12 11:06:57;;;;;;;0.40;0.40;;;;;;;28.32;25.75;99918.38;4993458;28;20042;-79
2022/07/12 11:09:24;;;;;;;1.02;0.75;;;;;;;28.33;26.53;99910.13;4992822;28;20050;-79
2022/07/12 11:11:51;;;;;;;0.55;0.40;;;;;;;28.63;29.73;99889.47;5011335;28;20486;-79
2022/07/12 11:14:22;;;;;;;1.42;0.60;;;;;;;28.62;24.93;99874.19;5011285;28;20473;-79
2022/07/12 11:16:54;;;;;;;0.32;0.32;;;;;;;28.20;24.77;99899.44;5011186;28;20080;-79
2022/07/12 11:19:27;;;;;;;0.38;0.38;;;;;;;28.07;27.94;99917.75;5011111;28;20022;-79
2022/07/12 11:21:57;;;;;;;1.08;0.40;;;;;;;27.83;24.80;99896.25;5011147;28;20068;-79
2022/07/12 11:24:29;;;;;;;0.32;0.25;;;;;;;27.99;26.23;99887.72;5011241;28;20033;-79
2022/07/12 11:26:56;;;;;;;0.35;0.30;;;;;;;28.04;24.33;99882.78;5010870;28;20029;-79
2022/07/12 11:29:22;;;;;;;0.80;0.63;;;;;;;28.43;24.63;99904.75;5011088;28;20026;-80
2022/07/12 11:31:48;;;;;;;0.57;0.57;;;;;;;29.21;26.53;99885.31;5011083;28;20030;-79